createdAt,value
2022-10-28T00:01:18.223Z,7.80
2022-10-28T00:03:49.459Z,7.17
2022-10-28T00:06:23.484Z,7.67
2022-10-28T00:08:50.857Z,7.65
2022-10-28T00:11:30.082Z,7.97
2022-10-28T00:14:00.470Z,8.00
2022-10-28T00:16:30.584Z,8.25
2022-10-28T00:19:02.092Z,7.43
2022-10-28T00:21:31.919Z,7.90
2022-10-28T00:23:59.114Z,8.05
2022-10-28T00:26:29.326Z,8.43
2022-10-28T00:28:59.527Z,8.00
2022-10-28T00:31:29.177Z,7.93
2022-10-28T00:33:58.622Z,7.75
2022-10-28T00:36:28.743Z,8.07
2022-10-28T00:38:56.467Z,7.82
2022-10-28T00:41:29.377Z,8.13
2022-10-28T00:44:35.278Z,8.15
2022-10-28T00:47:02.755Z,7.60
2022-10-28T00:49:34.102Z,7.50
2022-10-28T00:52:07.478Z,7.50
2022-10-28T00:54:35.601Z,7.90
2022-10-28T00:57:05.542Z,7.93
2022-10-28T00:59:35.951Z,7.32
2022-10-28T01:02:05.288Z,7.57
2022-10-28T01:04:32.733Z,7.95
2022-10-28T01:07:02.155Z,8.00
2022-10-28T01:09:29.262Z,8.07
2022-10-28T01:12:14.496Z,7.93
2022-10-28T01:15:02.959Z,8.32
2022-10-28T01:17:54.469Z,7.55
2022-10-28T01:20:27.573Z,7.80
2022-10-28T01:23:25.355Z,8.50
2022-10-28T01:26:19.515Z,7.93
2022-10-28T01:29:28.538Z,7.45
2022-10-28T01:32:11.173Z,6.87
2022-10-28T01:35:08.740Z,7.03
2022-10-28T01:37:53.765Z,7.97
2022-10-28T01:40:32.035Z,7.37
2022-10-28T01:42:59.117Z,7.90
2022-10-28T01:45:46.666Z,6.80
2022-10-28T01:48:20.134Z,7.10
2022-10-28T01:50:52.310Z,7.10
2022-10-28T01:53:23.923Z,7.40
2022-10-28T01:55:55.373Z,7.53
2022-10-28T01:58:28.478Z,7.50
2022-10-28T02:00:58.785Z,8.00
2022-10-28T02:03:27.843Z,7.50
2022-10-28T02:05:57.224Z,7.75
2022-10-28T02:08:46.196Z,7.82
2022-10-28T02:11:30.821Z,7.00
2022-10-28T02:14:07.244Z,7.80
2022-10-28T02:16:43.500Z,7.82
2022-10-28T02:19:13.684Z,7.83
2022-10-28T02:22:05.191Z,7.53
2022-10-28T02:24:42.806Z,7.87
2022-10-28T02:27:17.675Z,8.10
2022-10-28T02:30:01.891Z,7.90
2022-10-28T02:32:33.268Z,8.27
2022-10-28T02:35:03.550Z,8.00
2022-10-28T02:37:35.494Z,8.13
2022-10-28T02:40:08.377Z,8.07
2022-10-28T02:42:40.871Z,8.85
2022-10-28T02:45:22.144Z,8.13
2022-10-28T02:47:57.459Z,7.72
2022-10-28T02:50:37.778Z,8.13
2022-10-28T02:53:13.431Z,7.80
2022-10-28T02:55:44.188Z,8.30
2022-10-28T02:58:11.817Z,8.18
2022-10-28T03:00:47.053Z,8.02
2022-10-28T03:03:14.284Z,8.27
2022-10-28T03:05:41.425Z,8.55
2022-10-28T03:08:08.550Z,8.20
2022-10-28T03:10:35.663Z,8.80
2022-10-28T03:13:02.807Z,8.95
2022-10-28T03:15:29.934Z,8.75
2022-10-28T03:17:57.115Z,8.68
2022-10-28T03:20:24.239Z,8.50
2022-10-28T03:22:51.762Z,8.15
2022-10-28T03:25:19.088Z,7.68
2022-10-28T03:27:46.280Z,8.15
2022-10-28T03:30:14.538Z,8.20
2022-10-28T03:32:42.826Z,8.50
2022-10-28T03:35:10.215Z,7.90
2022-10-28T03:37:37.376Z,8.05
2022-10-28T03:40:07.799Z,7.50
2022-10-28T03:42:37.554Z,7.78
2022-10-28T03:45:08.655Z,7.70
2022-10-28T03:47:35.938Z,8.25
2022-10-28T03:50:03.375Z,7.72
2022-10-28T03:52:30.491Z,6.47
2022-10-28T03:54:57.593Z,7.05
2022-10-28T03:57:24.856Z,7.93
2022-10-28T03:59:51.983Z,7.30
2022-10-28T04:02:19.301Z,7.13
2022-10-28T04:04:46.603Z,6.90
2022-10-28T04:07:13.739Z,7.55
2022-10-28T04:09:42.697Z,6.73
2022-10-28T04:12:11.250Z,7.85
2022-10-28T04:14:38.388Z,7.10
2022-10-28T04:17:05.539Z,7.90
2022-10-28T04:19:32.696Z,7.68
2022-10-28T04:21:59.815Z,7.20
2022-10-28T04:24:26.950Z,7.00
2022-10-28T04:26:54.108Z,7.47
2022-10-28T04:29:21.253Z,7.23
2022-10-28T04:31:51.386Z,7.68
2022-10-28T04:34:19.492Z,6.80
2022-10-28T04:36:46.590Z,7.25
2022-10-28T04:39:13.723Z,6.80
2022-10-28T04:41:40.841Z,7.13
2022-10-28T04:44:08.022Z,7.10
2022-10-28T04:46:35.264Z,7.18
2022-10-28T04:49:02.504Z,6.20
2022-10-28T04:51:29.635Z,6.70
2022-10-28T04:53:56.730Z,6.45
2022-10-28T04:56:23.839Z,5.95
2022-10-28T04:58:50.967Z,6.53
2022-10-28T05:01:18.160Z,6.00
2022-10-28T05:03:45.387Z,6.53
2022-10-28T05:06:12.530Z,5.80
2022-10-28T05:08:39.704Z,5.60
2022-10-28T05:11:06.819Z,6.00
2022-10-28T05:13:33.962Z,6.25
2022-10-28T05:16:01.074Z,5.85
2022-10-28T05:18:28.190Z,6.13
2022-10-28T05:20:55.324Z,5.90
2022-10-28T05:23:25.811Z,5.68
2022-10-28T05:25:55.709Z,6.10
2022-10-28T05:28:22.910Z,5.38
2022-10-28T05:30:50.101Z,6.13
2022-10-28T05:33:17.243Z,5.30
2022-10-28T05:35:44.407Z,5.60
2022-10-28T05:38:11.762Z,4.60
2022-10-28T05:40:38.939Z,5.38
2022-10-28T05:43:06.131Z,5.07
2022-10-28T05:45:33.259Z,5.05
2022-10-28T05:48:00.438Z,5.18
2022-10-28T05:50:28.311Z,5.15
2022-10-28T05:52:56.785Z,5.40
2022-10-28T05:55:28.102Z,4.93
2022-10-28T05:57:56.652Z,5.10
2022-10-28T06:00:26.065Z,5.20
2022-10-28T06:02:53.777Z,5.40
2022-10-28T06:05:21.135Z,4.82
2022-10-28T06:07:48.365Z,5.32
2022-10-28T06:10:15.516Z,5.53
2022-10-28T06:12:41.117Z,5.80
2022-10-28T06:15:08.827Z,5.03
2022-10-28T06:17:36.070Z,4.95
2022-10-28T06:20:04.252Z,5.40
2022-10-28T06:22:31.370Z,4.77
2022-10-28T06:24:58.535Z,5.30
2022-10-28T06:27:25.731Z,5.35
2022-10-28T06:29:52.911Z,4.72
2022-10-28T06:32:20.114Z,5.28
2022-10-28T06:34:47.272Z,5.22
2022-10-28T06:37:14.623Z,5.10
2022-10-28T06:39:42.897Z,5.30
2022-10-28T06:42:10.046Z,5.35
2022-10-28T06:44:37.154Z,5.40
2022-10-28T06:47:06.261Z,4.90
2022-10-28T06:49:33.378Z,5.53
2022-10-28T06:52:00.572Z,5.03
2022-10-28T06:54:27.721Z,5.10
2022-10-28T06:56:54.901Z,5.22
2022-10-28T06:59:22.056Z,5.25
2022-10-28T07:01:49.249Z,5.18
2022-10-28T07:04:16.465Z,5.82
2022-10-28T07:06:45.394Z,5.20
2022-10-28T07:09:15.061Z,5.10
2022-10-28T07:11:45.106Z,5.30
2022-10-28T07:14:12.215Z,5.03
2022-10-28T07:16:39.361Z,5.22
2022-10-28T07:19:06.502Z,5.10
2022-10-28T07:21:33.934Z,5.47
2022-10-28T07:24:01.151Z,4.95
2022-10-28T07:26:28.722Z,4.95
2022-10-28T07:28:55.937Z,4.90
2022-10-28T07:31:23.108Z,4.90
2022-10-28T07:33:53.728Z,4.70
2022-10-28T07:36:21.547Z,4.57
2022-10-28T07:38:51.567Z,5.03
2022-10-28T07:41:20.533Z,5.10
2022-10-28T07:43:48.006Z,4.60
2022-10-28T07:46:15.832Z,4.73
2022-10-28T07:48:43.012Z,5.18
2022-10-28T07:51:13.568Z,4.85
2022-10-28T07:53:41.359Z,4.80
2022-10-28T07:56:13.147Z,4.60
2022-10-28T07:58:41.994Z,4.40
2022-10-28T08:01:11.638Z,4.28
2022-10-28T08:03:39.581Z,4.40
2022-10-28T08:06:13.207Z,4.72
2022-10-28T08:08:40.392Z,4.78
2022-10-28T08:11:19.488Z,4.03
2022-10-28T08:13:47.414Z,4.22
2022-10-28T08:16:14.680Z,4.53
2022-10-28T08:18:42.124Z,4.70
2022-10-28T08:21:10.981Z,4.30
2022-10-28T08:23:38.404Z,4.13
2022-10-28T08:26:05.936Z,4.63
2022-10-28T08:28:33.354Z,4.83
2022-10-28T08:31:09.417Z,4.57
2022-10-28T08:33:39.011Z,4.45
2022-10-28T08:36:07.485Z,4.28
2022-10-28T08:38:34.624Z,4.30
2022-10-28T08:41:04.848Z,4.18
2022-10-28T08:43:57.512Z,5.18
2022-10-28T08:46:37.554Z,3.80
2022-10-28T08:49:14.636Z,4.60
2022-10-28T08:51:56.922Z,4.53
2022-10-28T08:54:47.314Z,4.63
2022-10-28T08:57:25.631Z,4.70
2022-10-28T08:59:53.908Z,4.75
2022-10-28T09:02:24.041Z,4.50
2022-10-28T09:05:05.653Z,4.40
2022-10-28T09:07:36.372Z,4.20
2022-10-28T09:10:05.667Z,4.85
2022-10-28T09:13:04.753Z,4.78
2022-10-28T09:15:44.892Z,4.40
2022-10-28T09:18:19.324Z,4.55
2022-10-28T09:20:46.397Z,4.15
2022-10-28T09:23:28.254Z,5.00
2022-10-28T09:26:11.248Z,4.45
2022-10-28T09:28:52.422Z,4.40
2022-10-28T09:31:41.387Z,4.60
2022-10-28T09:34:49.603Z,4.57
2022-10-28T09:37:19.449Z,4.78
2022-10-28T09:39:51.143Z,4.47
2022-10-28T09:42:23.688Z,4.20
2022-10-28T09:44:58.422Z,4.00
2022-10-28T09:47:30.683Z,4.00
2022-10-28T09:50:01.115Z,4.38
2022-10-28T09:52:38.462Z,4.45
2022-10-28T09:55:19.868Z,4.40
2022-10-28T09:57:47.013Z,4.10
2022-10-28T10:00:16.128Z,4.25
2022-10-28T10:02:44.734Z,3.90
2022-10-28T10:05:17.001Z,4.10
2022-10-28T10:07:49.572Z,4.63
2022-10-28T10:10:31.125Z,3.70
2022-10-28T10:13:02.780Z,4.10
2022-10-28T10:15:44.425Z,4.53
2022-10-28T10:18:32.942Z,4.53
2022-10-28T10:21:00.654Z,4.40
2022-10-28T10:23:36.992Z,4.43
2022-10-28T10:26:09.495Z,4.20
2022-10-28T10:28:48.523Z,4.38
2022-10-28T10:31:25.891Z,4.03
2022-10-28T10:33:55.593Z,4.00
2022-10-28T10:36:28.587Z,4.57
2022-10-28T10:39:00.586Z,4.43
2022-10-28T10:41:34.456Z,4.22
2022-10-28T10:44:01.698Z,4.40
2022-10-28T10:46:28.934Z,4.05
2022-10-28T10:49:14.021Z,3.88
2022-10-28T10:51:51.905Z,4.15
2022-10-28T10:54:19.570Z,4.47
2022-10-28T10:56:46.868Z,4.72
2022-10-28T10:59:29.381Z,4.20
2022-10-28T11:01:58.338Z,4.47
2022-10-28T11:04:27.940Z,4.38
2022-10-28T11:06:57.444Z,4.10
2022-10-28T11:09:34.993Z,4.53
2022-10-28T11:12:32.126Z,4.22
2022-10-28T11:15:22.697Z,4.35
2022-10-28T11:18:02.759Z,4.80
2022-10-28T11:20:47.662Z,3.87
2022-10-28T11:23:41.582Z,4.45
2022-10-28T11:26:13.036Z,4.50
2022-10-28T11:29:01.569Z,4.90
2022-10-28T11:31:34.539Z,4.50
2022-10-28T11:34:40.544Z,4.70
2022-10-28T11:37:34.855Z,4.80
2022-10-28T11:40:50.359Z,4.97
2022-10-28T11:43:55.044Z,4.13
2022-10-28T11:46:53.779Z,5.13
2022-10-28T11:49:48.925Z,4.88
2022-10-28T11:52:55.229Z,4.37
2022-10-28T11:55:43.856Z,4.38
2022-10-28T11:58:31.231Z,4.87
2022-10-28T12:01:17.205Z,4.77
2022-10-28T12:04:19.373Z,4.82
2022-10-28T12:07:02.956Z,5.10
2022-10-28T12:09:42.495Z,4.80
2022-10-28T12:12:30.757Z,4.72
2022-10-28T12:15:13.639Z,4.47
2022-10-28T12:17:43.507Z,4.78
2022-10-28T12:20:20.693Z,4.72
2022-10-28T12:22:55.393Z,4.95
2022-10-28T12:25:26.970Z,4.53
2022-10-28T12:28:12.974Z,5.10
2022-10-28T12:30:42.577Z,4.63
2022-10-28T12:33:40.378Z,4.50
2022-10-28T12:36:07.437Z,4.97
2022-10-28T12:38:48.062Z,4.47
2022-10-28T12:41:26.602Z,4.85
2022-10-28T12:44:12.948Z,4.55
2022-10-28T12:46:44.873Z,3.92
2022-10-28T12:49:38.460Z,4.47
2022-10-28T12:52:30.813Z,4.00
2022-10-28T12:55:03.943Z,4.32
2022-10-28T12:57:34.410Z,3.80
2022-10-28T13:00:15.866Z,3.88
2022-10-28T13:02:58.881Z,3.90
2022-10-28T13:05:31.260Z,3.97
2022-10-28T13:08:22.006Z,4.37
2022-10-28T13:11:24.062Z,3.92
2022-10-28T13:14:12.426Z,3.30
2022-10-28T13:16:45.372Z,3.90
2022-10-28T13:19:38.059Z,3.95
2022-10-28T13:22:40.682Z,4.05
2022-10-28T13:25:39.212Z,3.90
2022-10-28T13:28:12.039Z,4.38
2022-10-28T13:30:51.436Z,4.60
2022-10-28T13:33:23.949Z,4.25
2022-10-28T13:35:51.525Z,4.47
2022-10-28T13:38:26.432Z,3.85
2022-10-28T13:43:50.136Z,4.50
2022-10-28T13:47:22.420Z,4.00
2022-10-28T13:50:08.320Z,4.20
2022-10-28T13:52:38.376Z,3.85
2022-10-28T13:55:23.670Z,4.55
2022-10-28T13:57:58.066Z,4.37
2022-10-28T14:03:21.363Z,4.35
2022-10-28T14:05:48.636Z,4.50
2022-10-28T14:08:28.585Z,3.60
2022-10-28T14:11:01.579Z,4.45
2022-10-28T14:13:31.154Z,4.10
2022-10-28T14:16:36.789Z,4.10
2022-10-28T14:19:18.417Z,4.10
2022-10-28T14:22:07.741Z,4.00
2022-10-28T14:24:37.798Z,3.80
2022-10-28T14:27:08.027Z,3.70
2022-10-28T14:29:54.627Z,3.80
2022-10-28T14:32:31.023Z,3.50
2022-10-28T14:35:13.128Z,4.18
2022-10-28T14:38:01.454Z,4.32
2022-10-28T14:41:02.868Z,3.60
2022-10-28T14:43:35.854Z,3.70
2022-10-28T14:46:30.272Z,3.85
2022-10-28T14:48:58.580Z,4.00
2022-10-28T14:51:29.319Z,3.55
2022-10-28T14:54:00.088Z,3.42
2022-10-28T14:56:29.563Z,3.50
2022-10-28T14:59:24.030Z,4.10
2022-10-28T15:02:00.631Z,3.70
2022-10-28T15:04:29.855Z,3.60
2022-10-28T15:06:57.294Z,3.70
2022-10-28T15:09:30.289Z,3.83
2022-10-28T15:12:01.553Z,3.63
2022-10-28T15:14:35.089Z,3.35
2022-10-28T15:17:20.858Z,3.78
2022-10-28T15:19:57.073Z,3.35
2022-10-28T15:22:33.122Z,3.70
2022-10-28T15:25:03.032Z,3.67
2022-10-28T15:27:36.557Z,3.80
2022-10-28T15:30:18.951Z,3.63
2022-10-28T15:32:46.140Z,3.50
2022-10-28T15:35:29.650Z,3.95
2022-10-28T15:38:00.645Z,3.23
2022-10-28T15:40:35.145Z,3.47
2022-10-28T15:43:06.316Z,4.10
2022-10-28T15:45:42.222Z,4.00
2022-10-28T15:48:18.685Z,3.88
2022-10-28T15:50:46.044Z,3.70
2022-10-28T15:53:37.997Z,3.90
2022-10-28T15:56:19.526Z,3.50
2022-10-28T15:58:59.842Z,3.75
2022-10-28T16:01:30.698Z,3.80
2022-10-28T16:03:58.042Z,3.72
2022-10-28T16:06:31.555Z,3.70
2022-10-28T16:09:01.492Z,3.60
2022-10-28T16:11:30.081Z,3.60
2022-10-28T16:13:58.768Z,3.42
2022-10-28T16:16:28.765Z,4.13
2022-10-28T16:19:10.357Z,3.80
2022-10-28T16:21:38.668Z,3.80
2022-10-28T16:24:06.348Z,4.32
2022-10-28T16:26:33.570Z,3.10
2022-10-28T16:29:00.829Z,3.28
2022-10-28T16:31:30.725Z,3.28
2022-10-28T16:34:01.138Z,2.20
2022-10-28T16:36:28.525Z,2.50
2022-10-28T16:38:55.652Z,2.53
2022-10-28T16:41:24.141Z,2.40
2022-10-28T16:43:51.295Z,2.28
2022-10-28T16:46:18.431Z,2.10
2022-10-28T16:48:45.605Z,2.17
2022-10-28T16:51:17.430Z,2.55
2022-10-28T16:53:47.235Z,2.47
2022-10-28T16:56:16.021Z,2.30
2022-10-28T16:58:43.913Z,2.75
2022-10-28T17:01:11.797Z,2.20
2022-10-28T17:03:39.151Z,2.00
2022-10-28T17:06:06.495Z,1.93
2022-10-28T17:09:01.381Z,2.15
2022-10-28T17:11:20.749Z,1.77
2022-10-28T17:13:47.933Z,1.70
2022-10-28T17:16:15.120Z,1.90
2022-10-28T17:18:43.535Z,2.00
2022-10-28T17:21:10.661Z,2.00
2022-10-28T17:23:39.804Z,2.10
2022-10-28T17:26:09.837Z,2.17
2022-10-28T17:28:36.984Z,2.23
2022-10-28T17:31:06.132Z,1.87
2022-10-28T17:33:33.681Z,2.58
2022-10-28T17:36:02.716Z,2.30
2022-10-28T17:38:32.938Z,3.30
2022-10-28T17:41:00.400Z,3.00
2022-10-28T17:43:28.422Z,2.57
2022-10-28T17:46:07.004Z,2.45
2022-10-28T17:48:34.700Z,2.27
2022-10-28T17:51:01.929Z,2.33
2022-10-28T17:53:29.076Z,2.10
2022-10-28T17:56:00.785Z,2.58
2022-10-28T17:58:29.812Z,2.35
2022-10-28T18:01:05.884Z,2.33
2022-10-28T18:03:38.238Z,2.20
2022-10-28T18:06:09.961Z,2.50
2022-10-28T18:08:39.488Z,2.13
2022-10-28T18:11:08.065Z,2.80
2022-10-28T18:13:39.853Z,2.40
2022-10-28T18:16:08.496Z,2.17
2022-10-28T18:18:41.042Z,2.28
2022-10-28T18:21:11.451Z,2.25
2022-10-28T18:23:39.232Z,2.28
2022-10-28T18:26:06.325Z,2.70
2022-10-28T18:28:35.325Z,2.47
2022-10-28T18:31:05.495Z,2.75
2022-10-28T18:33:33.748Z,2.90
2022-10-28T18:36:01.920Z,2.93
2022-10-28T18:38:29.088Z,3.00
2022-10-28T18:40:56.606Z,2.85
2022-10-28T18:43:23.870Z,2.83
2022-10-28T18:45:51.493Z,2.77
2022-10-28T18:48:18.999Z,2.70
2022-10-28T18:51:02.473Z,2.42
2022-10-28T18:53:29.614Z,2.88
2022-10-28T18:56:00.954Z,2.60
2022-10-28T18:58:28.136Z,2.95
2022-10-28T19:01:13.434Z,2.88
2022-10-28T19:03:41.805Z,2.90
2022-10-28T19:06:12.009Z,2.90
2022-10-28T19:08:40.083Z,3.28
2022-10-28T19:11:09.345Z,2.78
2022-10-28T19:13:38.812Z,3.10
2022-10-28T19:16:06.433Z,2.72
2022-10-28T19:18:36.513Z,2.92
2022-10-28T19:21:10.517Z,3.10
2022-10-28T19:23:38.371Z,3.13
2022-10-28T19:26:06.682Z,3.00
2022-10-28T19:28:39.283Z,3.25
2022-10-28T19:31:08.860Z,2.77
2022-10-28T19:33:38.303Z,2.90
2022-10-28T19:36:21.729Z,3.03
2022-10-28T19:38:50.399Z,2.80
2022-10-28T19:41:19.443Z,3.30
2022-10-28T19:43:46.996Z,3.00
2022-10-28T19:46:19.882Z,3.45
2022-10-28T19:48:49.558Z,2.80
2022-10-28T19:51:19.466Z,2.90
2022-10-28T19:53:48.286Z,3.20
2022-10-28T19:56:18.801Z,3.07
2022-10-28T19:58:47.764Z,3.13
2022-10-28T20:01:15.681Z,3.47
2022-10-28T20:03:48.827Z,3.60
2022-10-28T20:06:18.053Z,3.97
2022-10-28T20:08:46.530Z,3.65
2022-10-28T20:11:26.012Z,3.80
2022-10-28T20:14:00.923Z,3.30
2022-10-28T20:16:28.542Z,3.15
2022-10-28T20:18:56.769Z,3.70
2022-10-28T20:21:26.042Z,3.55
2022-10-28T20:23:55.616Z,3.88
2022-10-28T20:26:25.867Z,3.83
2022-10-28T20:28:53.136Z,3.38
2022-10-28T20:31:22.515Z,3.67
2022-10-28T20:33:58.607Z,4.00
2022-10-28T20:36:33.007Z,3.75
2022-10-28T20:39:08.065Z,3.00
2022-10-28T20:41:36.586Z,3.30
2022-10-28T20:44:04.791Z,4.25
2022-10-28T20:46:32.574Z,4.95
2022-10-28T20:49:00.818Z,4.57
2022-10-28T20:51:30.319Z,4.40
2022-10-28T20:53:57.776Z,4.20
2022-10-28T20:56:26.430Z,6.63
2022-10-28T20:58:54.796Z,7.45
2022-10-28T21:01:27.534Z,8.82
2022-10-28T21:04:00.573Z,6.45
2022-10-28T21:06:27.924Z,4.10
2022-10-28T21:08:56.469Z,4.18
2022-10-28T21:11:24.350Z,3.55
2022-10-28T21:13:54.210Z,3.95
2022-10-28T21:16:22.085Z,3.85
2022-10-28T21:18:50.081Z,3.80
2022-10-28T21:21:19.368Z,3.85
2022-10-28T21:23:46.569Z,4.20
2022-10-28T21:26:14.044Z,4.75
2022-10-28T21:28:41.505Z,4.20
2022-10-28T21:31:11.914Z,3.40
2022-10-28T21:33:40.158Z,3.43
2022-10-28T21:36:11.104Z,3.87
2022-10-28T21:38:38.269Z,3.58
2022-10-28T21:41:09.515Z,3.22
2022-10-28T21:43:39.184Z,3.60
2022-10-28T21:46:07.011Z,3.28
2022-10-28T21:48:35.887Z,4.28
2022-10-28T21:51:09.990Z,3.63
2022-10-28T21:53:42.735Z,3.63
2022-10-28T21:56:18.177Z,3.50
2022-10-28T21:58:48.150Z,3.50
2022-10-28T22:01:21.250Z,4.35
2022-10-28T22:03:48.950Z,5.38
2022-10-28T22:06:16.156Z,5.47
2022-10-28T22:08:43.290Z,5.47
2022-10-28T22:11:20.155Z,4.55
2022-10-28T22:13:48.696Z,4.07
2022-10-28T22:16:17.430Z,4.00
2022-10-28T22:18:45.591Z,4.13
2022-10-28T22:21:15.018Z,3.75
2022-10-28T22:23:42.499Z,3.63
2022-10-28T22:26:12.724Z,3.65
2022-10-28T22:28:40.660Z,4.27
2022-10-28T22:31:10.303Z,4.40
2022-10-28T22:33:37.850Z,4.27
2022-10-28T22:36:10.761Z,4.00
2022-10-28T22:38:38.552Z,4.57
2022-10-28T22:41:28.801Z,4.03
2022-10-28T22:43:58.332Z,3.97
2022-10-28T22:46:28.014Z,3.63
2022-10-28T22:48:55.517Z,3.70
2022-10-28T22:51:23.181Z,3.97
2022-10-28T22:53:50.614Z,3.72
2022-10-28T22:56:23.107Z,3.78
2022-10-28T22:58:58.961Z,4.03
2022-10-28T23:01:28.243Z,4.00
2022-10-28T23:03:56.001Z,4.10
2022-10-28T23:06:25.370Z,4.50
2022-10-28T23:08:53.373Z,4.70
2022-10-28T23:11:21.528Z,4.70
2022-10-28T23:13:53.095Z,4.95
2022-10-28T23:16:21.079Z,4.90
2022-10-28T23:18:48.741Z,5.20
2022-10-28T23:21:21.496Z,5.10
2022-10-28T23:23:56.386Z,5.47
2022-10-28T23:26:24.680Z,5.45
2022-10-28T23:28:54.878Z,5.80
2022-10-28T23:31:22.833Z,5.28
2022-10-28T23:33:50.351Z,5.07
2022-10-28T23:36:17.624Z,4.88
2022-10-28T23:38:44.866Z,5.32
2022-10-28T23:41:15.977Z,5.40
2022-10-28T23:43:43.391Z,5.57
2022-10-28T23:46:11.113Z,5.53
2022-10-28T23:48:38.575Z,5.93
2022-10-28T23:51:06.443Z,6.70
2022-10-28T23:53:34.023Z,6.53
2022-10-28T23:56:01.227Z,7.03
2022-10-28T23:58:28.356Z,7.03
